St. Louis Express — WDD3825 — position and weather

sailwx.info

Track history (hours):
 
Tides and Currents Weather Stations Pressure Air Temp Water Temp Dewpoint Dewpoint Depression Visibility Wind Speed Wind Dir Waves Ship Positions

St. Louis Express

More information available from US FCC via Universal Licensing System.

Last reported at 2014-Sep-21 14:17 UTC. Time now 2014-Sep-21 22:12 UTC.
Position N 32°04' W 080°57'.

Type: Ship (hazmat cat D). MMSI: 367136680.

Date/timePositionNaut miles runAvg speedWind from/ knotsBaromVisibWave heightAir tempDewpointWater temp
2014-Sep-21 14:17N 32°04' W 080°57'7 9.3
2014-Sep-21 13:33N 32°05' W 081°06'3 3.3
2014-Sep-21 12:33N 32°07' W 081°08'0 0.0
2014-Sep-21 11:32N 32°07' W 081°08'0 0.0
2014-Sep-21 10:28N 32°07' W 081°08'0 0.0
2014-Sep-21 09:28N 32°07' W 081°08'0 0.0
2014-Sep-21 07:33N 32°07' W 081°08'0 0.0
2014-Sep-21 06:24N 32°07' W 081°08'0 0.0
2014-Sep-21 05:33N 32°07' W 081°08'0 0.0
2014-Sep-21 04:28N 32°07' W 081°08'0 0.0
2014-Sep-21 03:26N 32°07' W 081°08'0 0.0
2014-Sep-21 02:09N 32°07' W 081°08'0 0.0
2014-Sep-21 01:31N 32°07' W 081°08'0 0.0
2014-Sep-21 00:30N 32°07' W 081°08'0 0.0
2014-Sep-20 23:33N 32°07' W 081°08'0 0.0
2014-Sep-20 22:33N 32°07' W 081°08'0 0.0
2014-Sep-20 21:33N 32°07' W 081°08'0 0.0
2014-Sep-20 20:25N 32°07' W 081°08'0 0.0
2014-Sep-20 19:32N 32°07' W 081°08'0 0.0
2014-Sep-20 18:33N 32°07' W 081°08'0 0.0
2014-Sep-20 17:33N 32°07' W 081°08'0 0.0
2014-Sep-20 16:33N 32°07' W 081°08'0 0.0
2014-Sep-20 15:32N 32°07' W 081°08'3 2.5
2014-Sep-20 14:30N 32°05' W 081°06'6 6.8
2014-Sep-20 13:34N 32°05' W 080°59'29418.9
2014-Sep-19 22:00N 27°18' W 079°42'1115.3 1014.0 5.4 25.023.530.0
2014-Sep-19 21:15N 27°07' W 079°44'1622.6
2014-Sep-19 20:33N 26°51' W 079°45'2322.8
2014-Sep-19 19:33N 26°28' W 079°47'2323.0
2014-Sep-19 18:33N 26°05' W 079°49'2322.5
2014-Sep-19 17:32N 25°43' W 079°51'9420.7
2014-Sep-19 13:00N 24°24' W 080°48'2322.7 160 / 21014.510.8 28.223.830.7
2014-Sep-19 12:00N 24°18' W 081°12'4020.1 160 / 21014.010.8 27.723.530.7
2014-Sep-19 10:00N 24°06' W 081°54'42820.4 180 / 101013.010.8 1.027.024.131.0
2014-Sep-18 13:00N 26°36' W 089°18'3417.2 270 / 51014.0 5.4 27.024.130.1
2014-Sep-18 11:00N 26°48' W 089°54'28619.4 1013.510.8 27.024.130.0
2014-Sep-17 20:16N 29°14' W 094°33'1014.8
2014-Sep-17 19:33N 29°20' W 094°42'1312.6
2014-Sep-17 18:33N 29°30' W 094°52'1312.7
2014-Sep-17 17:33N 29°41' W 094°59'1 1.1
2014-Sep-17 16:33N 29°41' W 095°00'0 0.0
2014-Sep-17 15:31N 29°41' W 095°00'0 0.0
2014-Sep-17 00:33N 29°41' W 095°00'0 0.0
2014-Sep-16 23:33N 29°41' W 095°00'0 0.0
2014-Sep-16 22:33N 29°41' W 095°00'0 0.0
2014-Sep-16 21:33N 29°41' W 095°00'0 0.0
2014-Sep-16 20:33N 29°41' W 095°00'0 0.0
2014-Sep-16 19:33N 29°41' W 095°00'0 0.0
2014-Sep-16 18:33N 29°41' W 095°00'0 0.0
2014-Sep-16 17:33N 29°41' W 095°00'0 0.0
2014-Sep-16 16:33N 29°41' W 095°00'0 0.0
2014-Sep-16 15:33N 29°41' W 095°00'0 0.0
2014-Sep-16 14:33N 29°41' W 095°00'0 0.0
2014-Sep-16 13:33N 29°41' W 095°00'0 0.0
2014-Sep-16 12:33N 29°41' W 095°00'0 0.0
2014-Sep-16 11:33N 29°41' W 095°00'0 0.0
2014-Sep-16 10:33N 29°41' W 095°00'0 0.0
2014-Sep-16 09:33N 29°41' W 095°00'0 0.0
2014-Sep-16 08:33N 29°41' W 095°00'0 0.0
2014-Sep-16 07:33N 29°41' W 095°00'0 0.0
2014-Sep-16 06:33N 29°41' W 095°00'0 0.0
2014-Sep-16 05:33N 29°41' W 095°00'0 0.0
2014-Sep-16 04:33N 29°41' W 095°00'0 0.0
2014-Sep-16 03:33N 29°41' W 095°00'0 0.0
2014-Sep-16 02:33N 29°41' W 095°00'0 0.0
2014-Sep-16 01:33N 29°41' W 095°00'0 0.2
2014-Sep-16 00:33N 29°41' W 095°00'8 8.0
2014-Sep-15 23:33N 29°34' W 094°55'1412.9
2014-Sep-15 22:30N 29°22' W 094°48'13417.9
2014-Sep-15 15:00N 28°06' W 092°42'2613.1 110 / 121017.010.8 1.031.025.430.9
2014-Sep-15 13:00N 27°42' W 092°30'28919.2 120 / 91016.510.8 1.027.424.630.7
2014-Sep-14 22:00N 25°54' W 087°30'18118.1 170 / 101015.510.8 1.030.024.331.0
2014-Sep-14 12:00N 24°48' W 084°24'24216.3 180 / 101016.010.8 1.027.223.930.7
2014-Sep-13 21:08N 25°26' W 080°00'1017.5
2014-Sep-13 20:33N 25°36' W 080°01'1817.9
2014-Sep-13 19:33N 25°54' W 080°03'1212.2
2014-Sep-13 18:33N 26°06' W 080°05'2 1.9
2014-Sep-13 17:27N 26°04' W 080°07'0 0.0
2014-Sep-13 16:30N 26°04' W 080°07'0 0.0
2014-Sep-13 15:30N 26°04' W 080°07'0 0.0
2014-Sep-13 14:30N 26°04' W 080°07'0 0.0
2014-Sep-13 13:33N 26°04' W 080°07'0 0.0
2014-Sep-13 12:33N 26°04' W 080°07'0 0.0
2014-Sep-13 11:33N 26°04' W 080°07'0 0.0
2014-Sep-13 10:33N 26°04' W 080°07'0 0.1
2014-Sep-13 09:33N 26°04' W 080°07'4 3.9
2014-Sep-13 08:33N 26°07' W 080°03'4 3.7
2014-Sep-13 07:33N 26°07' W 079°59'4 3.6
2014-Sep-13 06:33N 26°11' W 079°59'3 3.3
2014-Sep-13 05:33N 26°07' W 079°58'3 2.6
2014-Sep-13 04:33N 26°10' W 079°59'2 1.5
2014-Sep-13 03:33N 26°08' W 079°59'2 1.8
2014-Sep-13 02:33N 26°07' W 079°58'4 4.0
2014-Sep-13 01:33N 26°11' W 079°57'3 2.9
2014-Sep-13 00:33N 26°08' W 079°57'3 2.7
2014-Sep-12 23:33N 26°10' W 079°58'3 3.0
2014-Sep-12 22:33N 26°07' W 079°58'1 0.7
2014-Sep-12 21:33N 26°07' W 079°58'1414.4
2014-Sep-12 20:33N 26°21' W 080°00'1818.4
2014-Sep-12 19:33N 26°39' W 079°57'1817.5
2014-Sep-12 18:33N 26°57' W 079°58'6317.8
2014-Sep-12 15:00N 28°00' W 080°00'3618.2 160 / 101016.010.8 1.028.022.129.6
2014-Sep-12 13:00N 28°36' W 080°06'5518.3 140 / 61016.010.8 0.528.023.730.0
2014-Sep-12 10:00N 29°30' W 080°18'   090 / 51015.510.8 1.027.024.131.0
Track history (hours):
 
Tides and Currents Weather Stations Pressure Air Temp Water Temp Dewpoint Dewpoint Depression Visibility Wind Speed Wind Dir Waves Ship Positions

St. Louis Express

More information available from US FCC via Universal Licensing System.

Last reported at 2014-Sep-21 14:17 UTC. Time now 2014-Sep-21 22:12 UTC.
Position N 32°04' W 080°57'.

Type: Ship (hazmat cat D). MMSI: 367136680.

Date/timePositionNaut miles runAvg speedWind from/ knotsBaromVisibWave heightAir tempDewpointWater temp
2014-Sep-21 14:17N 32°04' W 080°57'7 9.3
2014-Sep-21 13:33N 32°05' W 081°06'3 3.3
2014-Sep-21 12:33N 32°07' W 081°08'0 0.0
2014-Sep-21 11:32N 32°07' W 081°08'0 0.0
2014-Sep-21 10:28N 32°07' W 081°08'0 0.0
2014-Sep-21 09:28N 32°07' W 081°08'0 0.0
2014-Sep-21 07:33N 32°07' W 081°08'0 0.0
2014-Sep-21 06:24N 32°07' W 081°08'0 0.0
2014-Sep-21 05:33N 32°07' W 081°08'0 0.0
2014-Sep-21 04:28N 32°07' W 081°08'0 0.0
2014-Sep-21 03:26N 32°07' W 081°08'0 0.0
2014-Sep-21 02:09N 32°07' W 081°08'0 0.0
2014-Sep-21 01:31N 32°07' W 081°08'0 0.0
2014-Sep-21 00:30N 32°07' W 081°08'0 0.0
2014-Sep-20 23:33N 32°07' W 081°08'0 0.0
2014-Sep-20 22:33N 32°07' W 081°08'0 0.0
2014-Sep-20 21:33N 32°07' W 081°08'0 0.0
2014-Sep-20 20:25N 32°07' W 081°08'0 0.0
2014-Sep-20 19:32N 32°07' W 081°08'0 0.0
2014-Sep-20 18:33N 32°07' W 081°08'0 0.0
2014-Sep-20 17:33N 32°07' W 081°08'0 0.0
2014-Sep-20 16:33N 32°07' W 081°08'0 0.0
2014-Sep-20 15:32N 32°07' W 081°08'3 2.5
2014-Sep-20 14:30N 32°05' W 081°06'6 6.8
2014-Sep-20 13:34N 32°05' W 080°59'29418.9
2014-Sep-19 22:00N 27°18' W 079°42'1115.3 1014.0 5.4 25.023.530.0
2014-Sep-19 21:15N 27°07' W 079°44'1622.6
2014-Sep-19 20:33N 26°51' W 079°45'2322.8
2014-Sep-19 19:33N 26°28' W 079°47'2323.0
2014-Sep-19 18:33N 26°05' W 079°49'2322.5
2014-Sep-19 17:32N 25°43' W 079°51'9420.7
2014-Sep-19 13:00N 24°24' W 080°48'2322.7 160 / 21014.510.8 28.223.830.7
2014-Sep-19 12:00N 24°18' W 081°12'4020.1 160 / 21014.010.8 27.723.530.7
2014-Sep-19 10:00N 24°06' W 081°54'42820.4 180 / 101013.010.8 1.027.024.131.0
2014-Sep-18 13:00N 26°36' W 089°18'3417.2 270 / 51014.0 5.4 27.024.130.1
2014-Sep-18 11:00N 26°48' W 089°54'28619.4 1013.510.8 27.024.130.0
2014-Sep-17 20:16N 29°14' W 094°33'1014.8
2014-Sep-17 19:33N 29°20' W 094°42'1312.6
2014-Sep-17 18:33N 29°30' W 094°52'1312.7
2014-Sep-17 17:33N 29°41' W 094°59'1 1.1
2014-Sep-17 16:33N 29°41' W 095°00'0 0.0
2014-Sep-17 15:31N 29°41' W 095°00'0 0.0
2014-Sep-17 00:33N 29°41' W 095°00'0 0.0
2014-Sep-16 23:33N 29°41' W 095°00'0 0.0
2014-Sep-16 22:33N 29°41' W 095°00'0 0.0
2014-Sep-16 21:33N 29°41' W 095°00'0 0.0
2014-Sep-16 20:33N 29°41' W 095°00'0 0.0
2014-Sep-16 19:33N 29°41' W 095°00'0 0.0
2014-Sep-16 18:33N 29°41' W 095°00'0 0.0
2014-Sep-16 17:33N 29°41' W 095°00'0 0.0
2014-Sep-16 16:33N 29°41' W 095°00'0 0.0
2014-Sep-16 15:33N 29°41' W 095°00'0 0.0
2014-Sep-16 14:33N 29°41' W 095°00'0 0.0
2014-Sep-16 13:33N 29°41' W 095°00'0 0.0
2014-Sep-16 12:33N 29°41' W 095°00'0 0.0
2014-Sep-16 11:33N 29°41' W 095°00'0 0.0
2014-Sep-16 10:33N 29°41' W 095°00'0 0.0
2014-Sep-16 09:33N 29°41' W 095°00'0 0.0
2014-Sep-16 08:33N 29°41' W 095°00'0 0.0
2014-Sep-16 07:33N 29°41' W 095°00'0 0.0
2014-Sep-16 06:33N 29°41' W 095°00'0 0.0
2014-Sep-16 05:33N 29°41' W 095°00'0 0.0
2014-Sep-16 04:33N 29°41' W 095°00'0 0.0
2014-Sep-16 03:33N 29°41' W 095°00'0 0.0
2014-Sep-16 02:33N 29°41' W 095°00'0 0.0
2014-Sep-16 01:33N 29°41' W 095°00'0 0.2
2014-Sep-16 00:33N 29°41' W 095°00'8 8.0
2014-Sep-15 23:33N 29°34' W 094°55'1412.9
2014-Sep-15 22:30N 29°22' W 094°48'13417.9
2014-Sep-15 15:00N 28°06' W 092°42'2613.1 110 / 121017.010.8 1.031.025.430.9
2014-Sep-15 13:00N 27°42' W 092°30'28919.2 120 / 91016.510.8 1.027.424.630.7
2014-Sep-14 22:00N 25°54' W 087°30'18118.1 170 / 101015.510.8 1.030.024.331.0
2014-Sep-14 12:00N 24°48' W 084°24'24216.3 180 / 101016.010.8 1.027.223.930.7
2014-Sep-13 21:08N 25°26' W 080°00'1017.5
2014-Sep-13 20:33N 25°36' W 080°01'1817.9
2014-Sep-13 19:33N 25°54' W 080°03'1212.2
2014-Sep-13 18:33N 26°06' W 080°05'2 1.9
2014-Sep-13 17:27N 26°04' W 080°07'0 0.0
2014-Sep-13 16:30N 26°04' W 080°07'0 0.0
2014-Sep-13 15:30N 26°04' W 080°07'0 0.0
2014-Sep-13 14:30N 26°04' W 080°07'0 0.0
2014-Sep-13 13:33N 26°04' W 080°07'0 0.0
2014-Sep-13 12:33N 26°04' W 080°07'0 0.0
2014-Sep-13 11:33N 26°04' W 080°07'0 0.0
2014-Sep-13 10:33N 26°04' W 080°07'0 0.1
2014-Sep-13 09:33N 26°04' W 080°07'4 3.9
2014-Sep-13 08:33N 26°07' W 080°03'4 3.7
2014-Sep-13 07:33N 26°07' W 079°59'4 3.6
2014-Sep-13 06:33N 26°11' W 079°59'3 3.3
2014-Sep-13 05:33N 26°07' W 079°58'3 2.6
2014-Sep-13 04:33N 26°10' W 079°59'2 1.5
2014-Sep-13 03:33N 26°08' W 079°59'2 1.8
2014-Sep-13 02:33N 26°07' W 079°58'4 4.0
2014-Sep-13 01:33N 26°11' W 079°57'3 2.9
2014-Sep-13 00:33N 26°08' W 079°57'3 2.7
2014-Sep-12 23:33N 26°10' W 079°58'3 3.0
2014-Sep-12 22:33N 26°07' W 079°58'1 0.7
2014-Sep-12 21:33N 26°07' W 079°58'1414.4
2014-Sep-12 20:33N 26°21' W 080°00'1818.4
2014-Sep-12 19:33N 26°39' W 079°57'1817.5
2014-Sep-12 18:33N 26°57' W 079°58'6317.8
2014-Sep-12 15:00N 28°00' W 080°00'3618.2 160 / 101016.010.8 1.028.022.129.6
2014-Sep-12 13:00N 28°36' W 080°06'5518.3 140 / 61016.010.8 0.528.023.730.0
2014-Sep-12 10:00N 29°30' W 080°18'   090 / 51015.510.8 1.027.024.131.0

Dump ship's entire track history